sensor_id;sensor_type;location;lat;lon;timestamp;P1;durP1;ratioP1;P2;durP2;ratioP2
75937;SDS011;64615;32.062;34.834;2023-05-10T00:20:51;6.88;;;3.33;;
75937;SDS011;64615;32.062;34.834;2023-05-10T00:23:42;7.85;;;2.88;;
75937;SDS011;64615;32.062;34.834;2023-05-10T00:26:33;8.25;;;2.63;;
75937;SDS011;64615;32.062;34.834;2023-05-10T00:29:24;5.80;;;2.60;;
75937;SDS011;64615;32.062;34.834;2023-05-10T00:32:15;6.07;;;2.90;;
75937;SDS011;64615;32.062;34.834;2023-05-10T00:35:06;5.93;;;2.80;;
75937;SDS011;64615;32.062;34.834;2023-05-10T00:37:57;5.40;;;2.70;;
75937;SDS011;64615;32.062;34.834;2023-05-10T00:40:48;6.68;;;2.85;;
75937;SDS011;64615;32.062;34.834;2023-05-10T00:43:39;6.93;;;2.92;;
75937;SDS011;64615;32.062;34.834;2023-05-10T00:46:30;6.40;;;2.88;;
75937;SDS011;64615;32.062;34.834;2023-05-10T00:49:21;5.47;;;2.63;;
75937;SDS011;64615;32.062;34.834;2023-05-10T00:52:12;6.28;;;3.08;;
75937;SDS011;64615;32.062;34.834;2023-05-10T00:55:04;6.38;;;3.20;;
75937;SDS011;64615;32.062;34.834;2023-05-10T00:57:56;6.88;;;3.42;;
75937;SDS011;64615;32.062;34.834;2023-05-10T01:22:05;5.68;;;3.00;;
75937;SDS011;64615;32.062;34.834;2023-05-10T01:32:43;6.88;;;3.10;;
75937;SDS011;64615;32.062;34.834;2023-05-10T01:35:34;4.65;;;2.78;;
75937;SDS011;64615;32.062;34.834;2023-05-10T01:40:47;6.43;;;3.05;;
75937;SDS011;64615;32.062;34.834;2023-05-10T01:43:31;6.95;;;2.78;;
75937;SDS011;64615;32.062;34.834;2023-05-10T01:46:03;5.95;;;3.30;;
75937;SDS011;64615;32.062;34.834;2023-05-10T01:48:40;6.53;;;3.10;;
75937;SDS011;64615;32.062;34.834;2023-05-10T01:51:13;7.13;;;3.10;;
75937;SDS011;64615;32.062;34.834;2023-05-10T01:53:45;6.25;;;3.30;;
75937;SDS011;64615;32.062;34.834;2023-05-10T01:56:13;7.70;;;3.63;;
75937;SDS011;64615;32.062;34.834;2023-05-10T01:58:40;7.88;;;3.42;;
75937;SDS011;64615;32.062;34.834;2023-05-10T02:01:11;6.65;;;3.20;;
75937;SDS011;64615;32.062;34.834;2023-05-10T02:03:38;6.38;;;3.20;;
75937;SDS011;64615;32.062;34.834;2023-05-10T02:06:07;6.72;;;3.20;;
75937;SDS011;64615;32.062;34.834;2023-05-10T02:08:35;5.60;;;3.20;;
75937;SDS011;64615;32.062;34.834;2023-05-10T02:11:02;5.80;;;3.08;;
75937;SDS011;64615;32.062;34.834;2023-05-10T02:13:30;8.07;;;3.80;;
75937;SDS011;64615;32.062;34.834;2023-05-10T02:15:57;7.35;;;3.17;;
75937;SDS011;64615;32.062;34.834;2023-05-10T02:18:25;5.80;;;2.95;;
75937;SDS011;64615;32.062;34.834;2023-05-10T18:39:52;10.88;;;5.30;;
75937;SDS011;64615;32.062;34.834;2023-05-10T18:42:18;10.48;;;5.30;;
75937;SDS011;64615;32.062;34.834;2023-05-10T18:44:44;10.95;;;5.13;;
75937;SDS011;64615;32.062;34.834;2023-05-10T18:47:10;10.23;;;5.32;;
75937;SDS011;64615;32.062;34.834;2023-05-10T18:49:36;10.63;;;5.38;;
75937;SDS011;64615;32.062;34.834;2023-05-10T18:52:01;10.48;;;5.55;;
75937;SDS011;64615;32.062;34.834;2023-05-10T18:54:27;11.80;;;4.53;;
75937;SDS011;64615;32.062;34.834;2023-05-10T18:56:54;10.10;;;5.15;;
75937;SDS011;64615;32.062;34.834;2023-05-10T18:59:21;9.77;;;4.82;;
75937;SDS011;64615;32.062;34.834;2023-05-10T19:01:47;9.35;;;5.50;;
75937;SDS011;64615;32.062;34.834;2023-05-10T19:04:12;10.50;;;4.65;;
75937;SDS011;64615;32.062;34.834;2023-05-10T19:06:38;12.48;;;5.28;;
75937;SDS011;64615;32.062;34.834;2023-05-10T19:09:05;11.00;;;5.22;;
75937;SDS011;64615;32.062;34.834;2023-05-10T19:11:31;12.57;;;5.15;;
75937;SDS011;64615;32.062;34.834;2023-05-10T19:13:58;9.70;;;5.35;;
75937;SDS011;64615;32.062;34.834;2023-05-10T19:16:25;11.85;;;5.55;;
75937;SDS011;64615;32.062;34.834;2023-05-10T19:18:52;9.73;;;5.22;;
75937;SDS011;64615;32.062;34.834;2023-05-10T19:21:18;9.90;;;4.78;;
75937;SDS011;64615;32.062;34.834;2023-05-10T19:23:43;10.07;;;5.35;;
75937;SDS011;64615;32.062;34.834;2023-05-10T19:26:09;9.45;;;5.10;;
75937;SDS011;64615;32.062;34.834;2023-05-10T19:28:35;9.95;;;5.18;;
75937;SDS011;64615;32.062;34.834;2023-05-10T19:31:01;9.75;;;5.20;;
75937;SDS011;64615;32.062;34.834;2023-05-10T19:33:27;8.30;;;4.55;;
75937;SDS011;64615;32.062;34.834;2023-05-10T19:35:53;9.02;;;5.18;;
75937;SDS011;64615;32.062;34.834;2023-05-10T19:38:20;9.13;;;5.35;;
75937;SDS011;64615;32.062;34.834;2023-05-10T20:17:23;12.18;;;5.85;;
75937;SDS011;64615;32.062;34.834;2023-05-10T20:19:48;11.13;;;6.03;;
75937;SDS011;64615;32.062;34.834;2023-05-10T20:22:14;11.15;;;5.68;;
75937;SDS011;64615;32.062;34.834;2023-05-10T20:24:40;11.70;;;6.30;;
75937;SDS011;64615;32.062;34.834;2023-05-10T20:27:05;13.80;;;5.57;;
75937;SDS011;64615;32.062;34.834;2023-05-10T20:29:31;11.35;;;5.45;;
75937;SDS011;64615;32.062;34.834;2023-05-10T20:31:57;11.00;;;5.63;;
75937;SDS011;64615;32.062;34.834;2023-05-10T20:34:23;10.65;;;5.75;;
75937;SDS011;64615;32.062;34.834;2023-05-10T20:36:49;10.68;;;5.18;;
75937;SDS011;64615;32.062;34.834;2023-05-10T20:39:14;9.60;;;4.63;;
75937;SDS011;64615;32.062;34.834;2023-05-10T20:41:40;10.55;;;5.72;;
75937;SDS011;64615;32.062;34.834;2023-05-10T20:44:06;10.48;;;5.25;;
75937;SDS011;64615;32.062;34.834;2023-05-10T20:46:31;11.38;;;5.43;;
75937;SDS011;64615;32.062;34.834;2023-05-10T20:48:57;13.25;;;5.57;;
75937;SDS011;64615;32.062;34.834;2023-05-10T20:51:23;9.77;;;5.28;;
75937;SDS011;64615;32.062;34.834;2023-05-10T20:53:49;11.18;;;5.22;;
75937;SDS011;64615;32.062;34.834;2023-05-10T20:56:14;8.80;;;5.15;;
75937;SDS011;64615;32.062;34.834;2023-05-10T20:58:40;9.50;;;5.25;;
75937;SDS011;64615;32.062;34.834;2023-05-10T21:01:06;10.95;;;5.55;;
75937;SDS011;64615;32.062;34.834;2023-05-10T21:03:31;8.93;;;4.85;;
75937;SDS011;64615;32.062;34.834;2023-05-10T21:05:57;12.00;;;5.20;;
75937;SDS011;64615;32.062;34.834;2023-05-10T21:08:23;11.27;;;5.82;;
75937;SDS011;64615;32.062;34.834;2023-05-10T21:10:48;11.32;;;4.60;;
75937;SDS011;64615;32.062;34.834;2023-05-10T21:13:14;8.77;;;5.20;;
75937;SDS011;64615;32.062;34.834;2023-05-10T21:15:40;11.20;;;5.47;;
